Time;durP1;ratioP1;P1;durP2;ratioP2;P2;SDS_P1;SDS_P2;PMS_P1;PMS_P2;Temp;Humidity;BMP_temperature;BMP_pressure;BME280_temperature;BME280_humidity;BME280_pressure;Samples;Min_cycle;Max_cycle;Signal;HPM_P1;HPM_P2
2022/09/20 00:00:48;;;;;;;2.75;1.30;;;;;;;13.81;62.27;99922.69;5070585;28;20082;-28
2022/09/20 00:03:15;;;;;;;2.20;1.20;;;;;;;13.70;62.16;99936.97;5070281;28;20043;-28
2022/09/20 00:05:44;;;;;;;2.78;1.20;;;;;;;13.74;62.75;99952.34;5070239;28;20052;-27
2022/09/20 00:08:13;;;;;;;3.63;1.35;;;;;;;13.62;62.67;99930.97;5070832;28;20116;-25
2022/09/20 00:10:39;;;;;;;3.33;1.20;;;;;;;13.72;62.66;99935.69;5070343;28;20101;-26
2022/09/20 00:13:07;;;;;;;1.65;1.00;;;;;;;13.57;62.69;99933.56;5070532;28;20029;-26
2022/09/20 00:15:33;;;;;;;1.90;1.20;;;;;;;13.56;62.96;99942.63;5070262;28;20102;-28
2022/09/20 00:17:59;;;;;;;2.90;1.50;;;;;;;13.77;62.13;99953.72;5070265;28;20415;-25
2022/09/20 00:20:25;;;;;;;2.78;1.00;;;;;;;13.56;62.60;99931.13;5070214;28;20111;-26
2022/09/20 00:22:51;;;;;;;2.50;1.02;;;;;;;13.66;62.25;99948.19;5070481;28;20032;-28
2022/09/20 00:25:19;;;;;;;2.97;1.10;;;;;;;13.49;62.92;99936.63;5069897;28;20043;-28
2022/09/20 00:27:44;;;;;;;2.65;1.20;;;;;;;13.60;61.75;99922.34;5070042;28;20456;-25
2022/09/20 00:30:14;;;;;;;2.53;1.08;;;;;;;13.65;61.76;99919.75;5069723;28;20062;-26
2022/09/20 00:32:40;;;;;;;3.25;1.13;;;;;;;13.74;61.40;99943.47;5069978;28;20095;-27
2022/09/20 00:35:06;;;;;;;2.63;1.15;;;;;;;13.67;61.67;99924.88;5070150;28;20104;-25
2022/09/20 00:37:37;;;;;;;1.63;0.98;;;;;;;13.64;61.86;99925.34;5069982;28;20039;-26
2022/09/20 00:40:06;;;;;;;1.65;1.10;;;;;;;13.70;61.71;99921.72;5069854;28;20040;-28
2022/09/20 00:42:32;;;;;;;1.65;0.88;;;;;;;13.69;61.62;99929.97;5051906;28;20480;-32
2022/09/20 00:44:59;;;;;;;2.03;0.80;;;;;;;13.71;60.93;99917.16;5069741;28;20038;-26
2022/09/20 00:47:36;;;;;;;1.88;0.90;;;;;;;13.92;60.39;99929.03;5069781;28;20033;-26
2022/09/20 00:50:18;;;;;;;2.17;1.20;;;;;;;13.90;60.93;99921.22;5069505;28;20045;-27
2022/09/20 00:52:47;;;;;;;2.50;0.95;;;;;;;13.81;60.46;99917.31;5069626;28;20270;-29
2022/09/20 00:55:14;;;;;;;1.90;1.00;;;;;;;13.78;61.32;99928.53;5069797;28;20194;-26
2022/09/20 00:57:41;;;;;;;1.90;0.85;;;;;;;13.68;61.26;99921.13;5069591;28;20036;-25
2022/09/20 01:00:09;;;;;;;3.03;0.82;;;;;;;13.60;61.26;99900.91;5069264;28;20146;-25
2022/09/20 01:02:39;;;;;;;1.70;0.90;;;;;;;13.72;61.14;99933.00;5051466;28;20549;-27
2022/09/20 01:05:07;;;;;;;2.47;1.00;;;;;;;13.76;61.48;99936.81;5051329;28;20057;-25
2022/09/20 01:07:33;;;;;;;1.25;0.80;;;;;;;13.80;60.90;99923.75;5069485;28;20021;-27
2022/09/20 01:09:59;;;;;;;2.15;1.10;;;;;;;13.64;61.67;99934.19;5068561;28;20040;-29
2022/09/20 01:12:29;;;;;;;1.60;0.90;;;;;;;13.72;61.32;99918.78;5069141;28;20037;-27
2022/09/20 01:14:57;;;;;;;2.63;0.90;;;;;;;13.53;61.94;99924.38;5069289;28;20036;-28
2022/09/20 01:17:26;;;;;;;2.58;0.95;;;;;;;13.51;61.84;99905.06;5068925;28;20127;-26
2022/09/20 01:20:07;;;;;;;1.95;0.90;;;;;;;13.65;61.68;99922.44;5068952;28;20553;-29
2022/09/20 01:22:46;;;;;;;1.73;0.98;;;;;;;13.31;62.52;99904.72;5051109;28;20859;-29
2022/09/20 01:25:51;;;;;;;2.03;1.17;;;;;;;13.29;63.15;99923.69;5069048;28;20119;-30
2022/09/20 01:28:16;;;;;;;2.88;1.15;;;;;;;13.32;62.72;99903.63;5027802;28;20469;-27
2022/09/20 01:31:01;;;;;;;1.83;1.00;;;;;;;13.44;62.96;99929.34;5069020;28;20489;-28
2022/09/20 01:33:50;;;;;;;1.98;1.10;;;;;;;13.49;62.53;99931.28;5069193;28;20107;-29
2022/09/20 01:36:22;;;;;;;1.40;1.00;;;;;;;13.24;63.76;99932.41;5050570;28;20515;-28
2022/09/20 01:39:08;;;;;;;3.45;1.20;;;;;;;13.20;63.76;99922.44;5069001;28;20499;-27
2022/09/20 01:41:56;;;;;;;3.20;1.10;;;;;;;13.15;64.21;99925.81;5050193;28;20047;-29
2022/09/20 01:44:43;;;;;;;2.45;1.10;;;;;;;13.33;63.55;99926.69;5068525;28;20473;-27
2022/09/20 01:47:20;;;;;;;2.95;1.10;;;;;;;13.26;63.74;99922.28;5069005;28;20064;-26
2022/09/20 01:50:07;;;;;;;2.42;1.00;;;;;;;13.31;63.59;99923.44;5068579;28;20086;-27
2022/09/20 01:53:10;;;;;;;2.50;1.08;;;;;;;13.36;63.41;99915.50;5068653;28;20033;-29
2022/09/20 01:56:04;;;;;;;1.80;1.20;;;;;;;13.27;63.72;99934.59;5068805;28;20036;-27
2022/09/20 01:58:32;;;;;;;0.93;0.80;;;;;;;13.26;64.01;99922.28;5045384;28;20047;-26
2022/09/20 02:01:26;;;;;;;1.33;0.85;;;;;;;13.26;64.21;99927.63;5068439;28;20668;-26
2022/09/20 02:04:12;;;;;;;2.50;0.98;;;;;;;13.00;64.44;99906.78;5067982;28;20056;-27
2022/09/20 02:07:01;;;;;;;2.38;0.93;;;;;;;13.15;64.28;99928.47;5068144;28;20123;-28
2022/09/20 02:09:44;;;;;;;1.60;1.00;;;;;;;13.14;64.39;99929.53;5020793;28;20116;-26
2022/09/20 02:12:28;;;;;;;1.92;0.88;;;;;;;13.14;64.94;99929.53;5050044;28;20122;-25
2022/09/20 02:15:31;;;;;;;2.17;0.90;;;;;;;13.16;65.45;99926.63;5067985;28;20048;-30
2022/09/20 02:18:18;;;;;;;2.70;1.10;;;;;;;13.17;65.67;99931.72;5067578;28;20025;-26
2022/09/20 02:21:10;;;;;;;1.90;0.95;;;;;;;13.18;65.64;99935.25;5067217;28;20079;-32
2022/09/20 02:23:44;;;;;;;1.63;1.00;;;;;;;13.27;65.62;99933.78;5068023;28;20020;-29
2022/09/20 02:26:17;;;;;;;2.50;1.10;;;;;;;13.18;65.77;99936.06;5067344;28;20115;-28
2022/09/20 02:29:00;;;;;;;2.63;0.93;;;;;;;12.72;66.83;99918.28;5068160;28;20029;-27
2022/09/20 02:31:43;;;;;;;1.88;1.10;;;;;;;12.64;67.94;99932.81;5067930;28;20024;-28
2022/09/20 02:34:31;;;;;;;2.42;0.90;;;;;;;12.53;69.02;99944.38;5049684;28;20214;-27
2022/09/20 02:37:14;;;;;;;1.40;0.93;;;;;;;12.49;69.88;99937.84;5067806;28;20051;-27
2022/09/20 02:39:48;;;;;;;3.90;1.40;;;;;;;12.45;69.01;99922.25;5067657;28;20028;-28
2022/09/20 02:42:22;;;;;;;3.47;1.30;;;;;;;12.41;70.41;99926.47;5067713;28;20512;-26
2022/09/20 02:45:06;;;;;;;2.45;1.30;;;;;;;12.28;70.27;99926.72;5067107;28;20021;-28
2022/09/20 02:47:41;;;;;;;4.03;1.30;;;;;;;12.39;70.17;99919.72;5067735;28;20047;-27
2022/09/20 02:50:30;;;;;;;1.50;1.02;;;;;;;12.15;71.14;99937.63;5067409;28;20062;-27
2022/09/20 02:52:56;;;;;;;3.95;1.25;;;;;;;11.94;71.92;99929.13;5067675;28;20029;-25
2022/09/20 02:55:39;;;;;;;2.65;1.23;;;;;;;12.14;72.02;99938.69;5048968;28;20036;-27
2022/09/20 02:58:25;;;;;;;2.92;1.25;;;;;;;11.99;72.49;99939.97;5067336;28;20036;-27
2022/09/20 03:01:23;;;;;;;2.75;1.23;;;;;;;11.96;72.17;99937.72;5067708;28;20029;-26
2022/09/20 03:04:00;;;;;;;2.05;1.13;;;;;;;11.88;72.47;99953.28;5062307;28;20048;-27
2022/09/20 03:06:46;;;;;;;2.45;1.25;;;;;;;11.88;72.37;99943.38;5067583;28;20090;-26
2022/09/20 03:09:18;;;;;;;2.22;1.00;;;;;;;11.82;72.08;99944.31;5067486;28;20071;-28
2022/09/20 03:11:49;;;;;;;1.67;1.00;;;;;;;11.74;73.46;99955.31;5067031;28;20024;-29
2022/09/20 03:14:17;;;;;;;2.38;1.00;;;;;;;11.76;72.58;99961.25;5067422;28;20029;-27
2022/09/20 03:17:21;;;;;;;2.88;1.15;;;;;;;11.57;72.85;99942.63;5067393;28;20039;-30
2022/09/20 03:19:52;;;;;;;3.17;1.48;;;;;;;11.79;72.93;99974.13;5066902;28;20016;-33
2022/09/20 03:22:45;;;;;;;0.98;0.80;;;;;;;11.84;72.70;99971.63;5066878;28;20028;-26
2022/09/20 03:25:16;;;;;;;2.45;0.90;;;;;;;11.95;71.88;99964.69;5065059;28;20025;-27
2022/09/20 03:28:07;;;;;;;2.60;1.17;;;;;;;11.70;73.63;99975.53;5065558;28;20102;-28
2022/09/20 03:30:35;;;;;;;3.13;1.00;;;;;;;11.88;72.63;99972.78;5065574;28;20024;-29
2022/09/20 03:33:11;;;;;;;;;;;;;;;11.95;70.74;99978.88;5068783;28;20117;-29
2022/09/20 03:35:42;;;;;;;2.42;1.10;;;;;;;11.84;71.55;99976.97;5069783;28;19908;-29
2022/09/20 03:38:22;;;;;;;1.60;0.98;;;;;;;11.90;70.23;99973.41;5070200;28;20026;-26
2022/09/20 03:40:47;;;;;;;1.20;0.85;;;;;;;11.94;70.80;99974.56;5070972;28;20123;-27
2022/09/20 03:43:32;;;;;;;1.35;0.90;;;;;;;12.01;71.18;99980.63;5071278;28;20107;-27
2022/09/20 03:46:20;;;;;;;2.40;1.13;;;;;;;12.09;68.52;99981.31;5070752;28;20024;-26
2022/09/20 03:49:12;;;;;;;2.63;1.30;;;;;;;11.93;69.52;99983.66;5061114;28;20036;-26
2022/09/20 03:51:43;;;;;;;1.38;1.00;;;;;;;11.86;68.72;99956.16;5070822;28;20032;-28
2022/09/20 03:54:08;;;;;;;1.38;0.90;;;;;;;11.81;69.50;99988.94;5070986;28;20047;-25
2022/09/20 03:57:02;;;;;;;4.93;1.27;;;;;;;11.79;68.02;99974.13;5071032;28;20033;-29
2022/09/20 03:59:43;;;;;;;2.05;1.30;;;;;;;12.01;68.59;99999.34;5070759;28;20408;-27
2022/09/20 04:02:59;;;;;;;2.42;1.27;;;;;;;12.03;68.65;100005.28;5070167;28;20044;-27
2022/09/20 04:05:58;;;;;;;2.28;1.27;;;;;;;12.04;68.75;100006.88;5026612;28;20055;-28
2022/09/20 04:08:36;;;;;;;2.13;1.30;;;;;;;11.87;68.02;100016.59;5070403;28;20380;-25
2022/09/20 04:11:14;;;;;;;2.33;1.40;;;;;;;11.70;69.12;99983.53;5070533;28;20040;-27
2022/09/20 04:13:53;;;;;;;2.67;1.60;;;;;;;11.89;69.10;100005.69;5052416;28;20081;-26
2022/09/20 04:16:45;;;;;;;1.55;1.13;;;;;;;12.04;68.33;100017.56;5070384;28;20025;-28
2022/09/20 04:19:41;;;;;;;2.50;1.45;;;;;;;12.05;68.70;100019.22;5070428;28;20029;-27
2022/09/20 04:22:07;;;;;;;3.50;1.55;;;;;;;12.14;67.54;100024.22;5070053;28;20024;-27
2022/09/20 04:24:58;;;;;;;2.67;1.55;;;;;;;12.09;68.42;100024.09;5069864;28;20032;-26
2022/09/20 04:27:47;;;;;;;2.85;1.60;;;;;;;11.91;67.61;99995.59;5070338;28;20051;-29
2022/09/20 04:30:26;;;;;;;3.63;1.90;;;;;;;12.17;68.10;100021.09;5070130;28;20021;-28
2022/09/20 04:33:10;;;;;;;5.43;1.95;;;;;;;12.19;67.47;100030.50;5069959;28;20100;-30
2022/09/20 04:38:35;;;;;;;3.00;1.70;;;;;;;12.08;68.05;100031.31;5069926;28;20035;-26
2022/09/20 04:41:20;;;;;;;3.80;1.67;;;;;;;12.25;66.82;100034.91;5070007;28;20029;-30
2022/09/20 04:43:52;;;;;;;2.75;1.80;;;;;;;12.27;67.14;100040.06;5068585;28;20036;-27
2022/09/20 04:46:27;;;;;;;2.42;1.75;;;;;;;12.13;66.95;100052.81;5069571;28;20025;-27
2022/09/20 04:48:58;;;;;;;2.17;1.70;;;;;;;12.17;67.25;100058.50;5069751;28;20028;-30
2022/09/20 04:51:32;;;;;;;2.53;1.90;;;;;;;12.18;66.96;100044.91;5069525;28;20052;-26
2022/09/20 04:54:44;;;;;;;3.70;2.03;;;;;;;12.27;67.65;100058.75;5069127;28;20036;-28
2022/09/20 04:57:45;;;;;;;2.95;1.98;;;;;;;12.26;67.89;100057.16;5069603;28;20052;-29
2022/09/20 05:00:17;;;;;;;4.10;1.90;;;;;;;12.46;66.30;100070.19;5051184;28;20028;-28
2022/09/20 05:02:43;;;;;;;3.55;2.20;;;;;;;12.64;65.97;100069.25;5051367;28;20123;-28
2022/09/20 05:05:40;;;;;;;3.40;2.22;;;;;;;12.67;65.04;100063.47;5069273;28;20136;-26
2022/09/20 05:08:39;;;;;;;3.53;1.90;;;;;;;12.60;65.83;100060.06;5051070;28;20055;-27
2022/09/20 05:11:26;;;;;;;3.67;2.13;;;;;;;12.80;66.26;100073.13;5069407;28;20090;-28
2022/09/20 05:14:13;;;;;;;3.10;2.30;;;;;;;13.02;64.94;100074.16;5069079;28;20578;-26
2022/09/20 05:16:59;;;;;;;5.85;3.83;;;;;;;13.13;63.66;100075.16;5051137;28;20824;-30
2022/09/20 05:19:41;;;;;;;4.20;2.72;;;;;;;13.15;65.19;100091.00;5069325;28;20098;-28
2022/09/20 05:22:07;;;;;;;10.68;3.70;;;;;;;13.31;64.39;100076.09;5068974;28;20033;-28
2022/09/20 05:24:55;;;;;;;4.78;2.17;;;;;;;13.38;63.93;100074.09;5068938;28;20106;-26
2022/09/20 05:27:43;;;;;;;3.83;2.20;;;;;;;13.48;63.24;100074.31;5068872;28;20028;-28
2022/09/20 05:30:08;;;;;;;;;;;;;;;13.84;63.19;100093.75;5069188;28;20024;-28
2022/09/20 05:32:44;;;;;;;2.92;2.10;;;;;;;13.88;62.27;100083.38;5068920;28;19917;-28
2022/09/20 05:35:37;;;;;;;2.67;1.73;;;;;;;13.91;61.60;100056.88;5068563;28;20062;-27
2022/09/20 05:38:27;;;;;;;3.50;1.90;;;;;;;14.11;61.18;100082.44;5067608;28;20044;-26
2022/09/20 05:41:08;;;;;;;5.55;2.20;;;;;;;14.13;60.22;100061.56;5068813;28;20040;-26
2022/09/20 05:43:49;;;;;;;3.92;2.17;;;;;;;14.32;60.22;100065.63;5068703;28;20036;-28
2022/09/20 05:46:33;;;;;;;3.03;1.70;;;;;;;14.65;59.14;100061.34;5068621;28;20052;-26
2022/09/20 05:49:33;;;;;;;2.92;1.77;;;;;;;14.75;57.79;100066.88;5068743;28;20455;-27
2022/09/20 05:52:24;;;;;;;65.60;30.15;;;;;;;14.94;57.36;100069.28;5068354;28;20032;-28
2022/09/20 05:55:03;;;;;;;87.82;30.98;;;;;;;14.60;56.85;100075.50;5068296;28;20754;-27
2022/09/20 05:57:55;;;;;;;141.32;48.70;;;;;;;14.51;58.60;100079.63;5068433;28;20082;-31
2022/09/20 06:00:26;;;;;;;263.02;96.85;;;;;;;14.30;57.10;100070.41;5068252;28;20027;-26
2022/09/20 06:03:09;;;;;;;658.88;307.75;;;;;;;14.11;58.94;100077.06;5068316;28;20040;-27
2022/09/20 06:05:57;;;;;;;379.30;169.02;;;;;;;14.20;58.92;100089.03;5067887;28;20135;-29
2022/09/20 06:08:50;;;;;;;560.42;250.75;;;;;;;14.23;59.14;100085.88;5068616;28;20090;-27
2022/09/20 06:11:36;;;;;;;960.88;486.52;;;;;;;14.24;59.65;100082.13;5068140;28;20085;-27
2022/09/20 06:14:26;;;;;;;472.85;226.77;;;;;;;14.29;59.58;100079.53;5067138;28;20044;-28
2022/09/20 06:17:29;;;;;;;116.70;47.92;;;;;;;14.32;59.35;100084.41;5067975;28;20044;-27
2022/09/20 06:20:09;;;;;;;358.80;149.95;;;;;;;14.51;59.07;100084.19;5067820;28;20024;-27
2022/09/20 06:22:46;;;;;;;82.85;31.98;;;;;;;14.65;56.92;100066.72;5068184;28;20040;-30
2022/09/20 06:25:39;;;;;;;261.05;100.05;;;;;;;14.91;57.50;100085.88;5049856;28;20028;-27
2022/09/20 06:28:14;;;;;;;227.25;97.10;;;;;;;14.99;57.11;100085.44;5059964;28;20051;-27
2022/09/20 06:30:45;;;;;;;279.60;107.97;;;;;;;15.42;57.09;100081.16;5067745;28;20582;-27
2022/09/20 06:33:11;;;;;;;253.50;105.50;;;;;;;15.68;54.03;100101.91;5049917;28;20039;-27
2022/09/20 06:35:44;;;;;;;12.73;5.32;;;;;;;15.06;54.99;100083.41;5067891;28;20404;-27
2022/09/20 06:41:27;;;;;;;40.88;17.30;;;;;;;15.06;53.77;100103.03;5067567;28;20035;-27
2022/09/20 06:43:57;;;;;;;51.90;22.70;;;;;;;15.23;54.07;100094.91;5067194;28;20051;-26
2022/09/20 06:46:28;;;;;;;169.90;64.35;;;;;;;15.88;51.38;100105.94;5067431;28;20032;-28
2022/09/20 06:48:54;;;;;;;16.98;5.85;;;;;;;15.73;51.17;100073.47;5067523;28;20025;-27
2022/09/20 06:51:21;;;;;;;128.82;51.70;;;;;;;16.30;50.75;100091.78;5067314;28;20028;-26
2022/09/20 06:53:48;;;;;;;8.48;3.85;;;;;;;16.51;49.08;100097.34;5049028;28;20458;-27
2022/09/20 06:56:18;;;;;;;4.75;2.40;;;;;;;16.14;50.30;100095.41;5067230;28;20385;-27
2022/09/20 06:58:43;;;;;;;4.60;1.50;;;;;;;15.95;50.81;100082.31;5067113;28;20039;-27
2022/09/20 07:01:09;;;;;;;118.22;40.35;;;;;;;16.16;51.52;100117.47;5066951;28;20021;-26
2022/09/20 07:03:34;;;;;;;8.77;3.60;;;;;;;15.74;50.48;100110.88;5066512;28;20038;-26
2022/09/20 07:06:01;;;;;;;2.70;1.30;;;;;;;15.34;51.10;100111.16;5066470;28;20063;-25
2022/09/20 07:08:26;;;;;;;23.50;8.88;;;;;;;15.31;52.46;100125.09;5066726;28;20111;-27
2022/09/20 07:10:52;;;;;;;2.63;1.60;;;;;;;15.23;52.35;100094.91;5066961;28;20112;-26
2022/09/20 07:13:19;;;;;;;5.05;2.00;;;;;;;15.22;52.79;100125.53;5066813;28;20646;-26
2022/09/20 07:15:45;;;;;;;4.72;2.28;;;;;;;15.13;52.86;100110.88;5066624;28;20067;-31
2022/09/20 07:18:11;;;;;;;5.28;2.20;;;;;;;15.33;52.54;100120.31;5067192;28;20028;-28
2022/09/20 07:20:36;;;;;;;21.70;8.10;;;;;;;15.27;51.76;100133.66;5067053;28;20407;-26
2022/09/20 07:23:02;;;;;;;7.22;2.58;;;;;;;15.47;50.48;100126.94;5066927;28;20086;-25
2022/09/20 07:25:30;;;;;;;3.28;1.88;;;;;;;15.54;50.37;100127.53;5067006;28;20139;-28
2022/09/20 07:27:56;;;;;;;9.07;3.42;;;;;;;15.74;49.58;100127.00;5066818;28;20032;-26
2022/09/20 07:30:22;;;;;;;8.30;4.18;;;;;;;15.93;49.97;100132.84;5048562;28;20036;-29
2022/09/20 07:32:47;;;;;;;24.20;9.63;;;;;;;16.40;48.88;100126.06;5067065;28;20024;-27
2022/09/20 07:35:14;;;;;;;14.27;4.47;;;;;;;16.57;47.64;100117.84;5067124;28;20032;-27
2022/09/20 07:37:40;;;;;;;7.82;2.90;;;;;;;16.60;48.17;100128.09;5048770;28;20017;-26
2022/09/20 07:40:06;;;;;;;2.58;1.77;;;;;;;16.61;47.31;100124.34;5066706;28;20032;-26
2022/09/20 07:42:32;;;;;;;2.85;1.50;;;;;;;16.58;48.40;100130.25;5066895;28;20028;-28
2022/09/20 07:44:58;;;;;;;14.63;6.72;;;;;;;16.96;46.76;100131.06;5066287;28;20089;-28
2022/09/20 07:47:25;;;;;;;6.10;2.65;;;;;;;16.84;44.77;100123.22;5067009;28;20036;-27
2022/09/20 07:49:51;;;;;;;19.45;7.38;;;;;;;16.81;45.27;100129.91;5066553;28;20108;-26
2022/09/20 07:52:18;;;;;;;21.38;7.50;;;;;;;17.23;46.85;100107.53;5066943;28;20558;-30
2022/09/20 07:54:44;;;;;;;8.63;3.58;;;;;;;17.56;45.12;100123.59;5066974;28;20032;-26
2022/09/20 07:57:10;;;;;;;3.00;1.60;;;;;;;17.22;44.79;100105.94;5066715;28;20029;-28
2022/09/20 07:59:36;;;;;;;3.03;1.45;;;;;;;17.29;45.28;100118.34;5066588;28;20024;-26
2022/09/20 08:02:01;;;;;;;3.63;1.80;;;;;;;17.31;44.21;100118.91;5066632;28;20477;-26
2022/09/20 08:04:27;;;;;;;3.08;1.70;;;;;;;17.43;45.24;100097.94;5066526;28;20052;-33
2022/09/20 08:06:52;;;;;;;9.18;3.13;;;;;;;17.41;44.26;100114.38;5066733;28;20021;-27
2022/09/20 08:09:18;;;;;;;15.77;5.30;;;;;;;17.89;45.49;100116.97;5066784;28;20059;-30
2022/09/20 08:11:45;;;;;;;6.47;2.38;;;;;;;17.89;43.51;100114.28;5066446;28;20029;-27
2022/09/20 08:14:15;;;;;;;2.53;1.63;;;;;;;17.91;42.74;100114.03;5066581;28;20040;-27
2022/09/20 08:16:43;;;;;;;7.32;2.97;;;;;;;17.81;43.57;100103.97;5066533;28;20029;-28
2022/09/20 08:19:16;;;;;;;12.40;5.00;;;;;;;17.68;42.38;100116.09;5069407;28;20039;-27
2022/09/20 08:21:43;;;;;;;51.50;26.58;;;;;;;17.90;42.96;100096.19;5070026;28;20024;-28
2022/09/20 08:24:08;;;;;;;3.05;1.67;;;;;;;18.02;41.39;100110.25;5069841;28;20597;-28
2022/09/20 08:26:34;;;;;;;8.77;4.30;;;;;;;17.92;41.27;100107.53;5051945;28;20032;-26
2022/09/20 08:29:00;;;;;;;7.50;3.55;;;;;;;18.12;42.54;100114.88;5069945;28;20082;-32
2022/09/20 08:31:32;;;;;;;1.83;1.40;;;;;;;17.92;42.06;100115.63;5070386;28;20032;-27
2022/09/20 08:34:02;;;;;;;14.18;6.38;;;;;;;18.26;40.17;100107.88;5051525;28;20815;-28
2022/09/20 08:36:28;;;;;;;32.58;17.83;;;;;;;18.46;40.75;100094.38;5069894;28;20033;-27
2022/09/20 08:38:54;;;;;;;26.98;13.10;;;;;;;18.83;40.49;100108.69;5069477;28;20036;-26
2022/09/20 08:41:22;;;;;;;5.32;2.58;;;;;;;18.75;39.87;100111.91;5069606;28;20028;-27
2022/09/20 08:43:52;;;;;;;2.03;1.30;;;;;;;18.77;38.81;100088.13;5051607;28;20082;-29
2022/09/20 08:46:21;;;;;;;12.45;5.88;;;;;;;19.16;39.81;100091.03;5069649;28;20040;-26
2022/09/20 08:48:47;;;;;;;2.58;1.30;;;;;;;19.07;39.50;100079.97;5051553;28;20033;-27
2022/09/20 08:51:15;;;;;;;4.28;1.85;;;;;;;19.05;38.34;100100.28;5069695;28;20058;-26
2022/09/20 08:53:50;;;;;;;1.08;0.98;;;;;;;18.76;38.21;100079.22;5051385;28;20029;-27
2022/09/20 08:56:16;;;;;;;4.35;1.67;;;;;;;19.20;39.93;100081.28;5069718;28;20036;-28
2022/09/20 08:58:42;;;;;;;1.77;0.90;;;;;;;19.55;38.89;100070.59;5051618;28;20081;-27
2022/09/20 09:01:22;;;;;;;9.73;5.93;;;;;;;19.46;38.84;100078.50;5051366;28;20020;-28
2022/09/20 09:03:51;;;;;;;3.88;2.05;;;;;;;19.57;39.03;100074.63;5068984;28;20032;-27
2022/09/20 09:06:21;;;;;;;9.85;5.65;;;;;;;19.31;38.16;100060.44;5069533;28;20056;-27
2022/09/20 09:08:50;;;;;;;6.55;3.03;;;;;;;19.37;39.93;100074.75;5034751;28;20032;-27
2022/09/20 09:11:18;;;;;;;2.00;1.48;;;;;;;19.46;39.07;100068.47;5069494;28;20063;-27
2022/09/20 09:14:01;;;;;;;6.50;2.17;;;;;;;19.75;39.33;100064.31;5051220;28;20412;-30
2022/09/20 09:16:30;;;;;;;2.40;1.38;;;;;;;19.82;38.80;100060.22;5069179;28;20033;-27
2022/09/20 09:18:56;;;;;;;1.85;1.20;;;;;;;19.90;37.97;100066.94;5051032;28;20040;-27
2022/09/20 09:21:23;;;;;;;2.15;1.00;;;;;;;19.84;37.33;100073.47;5069394;28;20032;-27
2022/09/20 09:23:51;;;;;;;4.35;1.33;;;;;;;20.01;38.45;100064.97;5069066;28;20484;-28
2022/09/20 09:26:22;;;;;;;3.15;1.90;;;;;;;19.92;38.67;100043.09;5050944;28;20036;-27
2022/09/20 09:29:22;;;;;;;6.93;2.55;;;;;;;20.47;38.75;100076.22;5050953;28;20078;-27
2022/09/20 09:31:51;;;;;;;2.95;1.55;;;;;;;20.21;37.87;100064.00;5018172;28;20131;-27
2022/09/20 09:34:37;;;;;;;1.85;1.02;;;;;;;19.86;37.49;100063.97;5051006;28;20036;-30
2022/09/20 09:37:03;;;;;;;2.38;1.13;;;;;;;19.97;36.31;100056.59;5069052;28;20032;-28
2022/09/20 09:39:34;;;;;;;2.00;1.05;;;;;;;20.34;36.41;100060.63;5068523;28;20153;-26
2022/09/20 09:42:19;;;;;;;2.17;1.05;;;;;;;20.24;38.04;100023.59;5068479;28;20043;-27
2022/09/20 09:44:49;;;;;;;1.75;1.20;;;;;;;20.42;38.61;100035.63;5068635;28;20052;-31
2022/09/20 09:47:28;;;;;;;1.92;1.00;;;;;;;20.43;37.90;100023.72;5068560;28;20031;-27
2022/09/20 09:49:59;;;;;;;24.77;10.63;;;;;;;21.00;35.11;100050.25;5068455;28;20396;-26
2022/09/20 09:52:26;;;;;;;8.48;3.83;;;;;;;21.03;32.28;100038.84;5068629;28;20035;-28
2022/09/20 09:54:58;;;;;;;6.10;1.30;;;;;;;21.05;36.38;100053.72;5050382;28;20560;-27
2022/09/20 09:57:31;;;;;;;9.57;2.38;;;;;;;20.83;33.55;100035.25;5068401;28;20059;-30
2022/09/20 10:00:21;;;;;;;1.27;0.80;;;;;;;20.94;33.16;100046.78;5050180;28;20066;-28
2022/09/20 10:03:08;;;;;;;1.15;0.60;;;;;;;21.21;32.75;100024.50;5060178;28;20070;-27
2022/09/20 10:05:56;;;;;;;2.17;0.68;;;;;;;20.83;33.18;100043.38;5068238;28;20059;-30
2022/09/20 10:08:49;;;;;;;1.20;0.57;;;;;;;21.06;34.36;100044.50;5068236;28;20029;-26
2022/09/20 10:11:34;;;;;;;0.90;0.68;;;;;;;21.16;35.39;100037.31;5068347;28;20519;-28
2022/09/20 10:14:30;;;;;;;0.90;0.50;;;;;;;21.20;33.14;100035.66;5050098;28;20035;-26
2022/09/20 10:17:04;;;;;;;3.85;1.15;;;;;;;21.41;33.81;100022.63;5068099;28;20528;-29
2022/09/20 10:20:08;;;;;;;0.73;0.50;;;;;;;21.74;31.39;100030.88;5049986;28;20113;-28
2022/09/20 10:22:56;;;;;;;0.88;0.63;;;;;;;21.59;30.36;100040.84;5049188;28;20133;-27
2022/09/20 10:25:38;;;;;;;5.90;1.30;;;;;;;21.79;31.04;100028.09;5067331;28;20392;-30
2022/09/20 10:28:22;;;;;;;1.60;0.50;;;;;;;21.60;31.42;100020.75;5029116;28;20044;-26
2022/09/20 10:31:02;;;;;;;0.60;0.60;;;;;;;21.85;31.04;100016.84;5047681;28;20032;-29
2022/09/20 10:33:43;;;;;;;1.15;0.85;;;;;;;22.05;30.29;100002.16;5047404;28;20075;-26
2022/09/20 10:36:39;;;;;;;0.68;0.32;;;;;;;22.23;30.12;100015.97;5051720;28;20519;-28
2022/09/20 10:39:27;;;;;;;0.47;0.40;;;;;;;22.38;29.35;100006.78;5067434;28;20063;-27
2022/09/20 10:45:17;;;;;;;15.68;5.00;;;;;;;22.87;27.89;100008.84;5067316;28;20153;-30
2022/09/20 10:47:55;;;;;;;17.88;6.68;;;;;;;23.31;30.22;100006.59;5067599;28;20056;-29
2022/09/20 10:50:27;;;;;;;7.60;2.55;;;;;;;23.19;27.78;99998.16;5049078;28;20144;-29
2022/09/20 10:53:29;;;;;;;10.48;3.55;;;;;;;23.04;28.28;99985.69;5067427;28;20024;-27
2022/09/20 10:56:22;;;;;;;4.43;1.25;;;;;;;23.25;28.95;99991.50;5066987;28;20487;-30
2022/09/20 10:59:02;;;;;;;3.85;1.33;;;;;;;23.78;29.31;99992.78;5067088;28;20044;-31
2022/09/20 11:02:03;;;;;;;7.57;2.90;;;;;;;23.91;27.59;99983.75;5048906;28;20082;-28
2022/09/20 11:04:47;;;;;;;5.93;2.10;;;;;;;23.99;27.99;99977.56;5028254;28;20063;-30
2022/09/20 11:07:46;;;;;;;1.25;0.50;;;;;;;23.19;28.44;99962.78;5067262;28;20043;-29
2022/09/20 11:10:21;;;;;;;1.55;0.75;;;;;;;23.28;29.69;99966.41;5066484;28;20036;-29
2022/09/20 11:12:52;;;;;;;4.68;1.48;;;;;;;23.77;27.22;99985.75;5048798;28;20047;-29
2022/09/20 11:15:42;;;;;;;1.05;0.65;;;;;;;23.60;27.62;99970.03;5066981;28;20031;-27
2022/09/20 11:18:37;;;;;;;3.45;1.00;;;;;;;23.49;27.96;99953.13;5066753;28;20028;-27
2022/09/20 11:21:13;;;;;;;7.80;2.78;;;;;;;24.11;28.12;99959.84;5066972;28;20036;-28
2022/09/20 11:23:45;;;;;;;8.27;2.97;;;;;;;24.45;28.16;99962.72;5048361;28;20504;-28
2022/09/20 11:26:18;;;;;;;4.43;1.13;;;;;;;24.91;27.89;99948.94;5066948;28;20549;-29
2022/09/20 11:29:01;;;;;;;1.00;0.60;;;;;;;24.26;26.74;99959.44;5048760;28;20032;-28
2022/09/20 11:31:38;;;;;;;1.05;0.50;;;;;;;24.38;28.48;99956.13;5066654;28;20032;-30
2022/09/20 11:34:26;;;;;;;9.35;3.35;;;;;;;24.19;27.79;99942.72;5066443;28;20028;-26
2022/09/20 11:37:02;;;;;;;8.98;3.42;;;;;;;24.81;28.12;99948.13;5048820;28;20041;-27
2022/09/20 11:39:43;;;;;;;9.63;4.55;;;;;;;25.23;27.59;99942.28;5066844;28;20062;-29
2022/09/20 11:42:15;;;;;;;3.92;1.23;;;;;;;25.29;28.29;99951.13;5048265;28;20028;-30
2022/09/20 11:44:41;;;;;;;49.58;21.40;;;;;;;25.01;28.58;99937.75;5066400;28;20493;-27
2022/09/20 11:47:21;;;;;;;4.07;1.02;;;;;;;24.47;29.06;99926.97;5066453;28;20032;-28
2022/09/20 11:50:03;;;;;;;2.40;0.77;;;;;;;24.04;27.55;99952.09;5066429;28;20036;-28
2022/09/20 11:52:47;;;;;;;1.70;0.57;;;;;;;24.14;29.48;99935.50;5066542;28;20025;-26
2022/09/20 11:55:26;;;;;;;2.90;1.20;;;;;;;24.44;29.23;99927.63;5070319;28;20040;-32
2022/09/20 11:58:15;;;;;;;3.47;1.67;;;;;;;24.24;29.26;99920.81;5070402;28;20029;-27
2022/09/20 12:00:45;;;;;;;6.68;3.08;;;;;;;25.05;28.69;99922.34;5070762;28;20108;-27
2022/09/20 12:03:24;;;;;;;23.23;10.82;;;;;;;25.28;29.35;99914.84;5070061;28;20120;-28
2022/09/20 12:06:02;;;;;;;1.52;0.95;;;;;;;24.60;27.39;99919.81;5068760;28;20064;-31
2022/09/20 12:08:40;;;;;;;5.90;1.73;;;;;;;24.36;27.86;99915.56;5070323;28;20110;-28
2022/09/20 12:11:09;;;;;;;1.42;0.30;;;;;;;23.86;28.39;99913.06;5070063;28;20535;-27
2022/09/20 12:14:00;;;;;;;1.98;0.73;;;;;;;24.23;28.22;99911.00;5070040;28;20033;-27
2022/09/20 12:16:44;;;;;;;1.27;0.55;;;;;;;24.19;27.48;99897.22;5058820;28;20048;-26
2022/09/20 12:19:13;;;;;;;13.85;6.00;;;;;;;24.11;27.11;99910.78;5070094;28;20034;-28
2022/09/20 12:21:57;;;;;;;2.70;0.70;;;;;;;23.77;28.70;99915.75;5070081;28;20024;-29